createdAt,value
2023-04-03T00:04:23.100Z,99021.00
2023-04-03T00:09:44.405Z,99017.00
2023-04-03T00:15:06.477Z,99027.00
2023-04-03T00:20:28.531Z,99026.00
2023-04-03T00:25:49.774Z,99028.00
2023-04-03T00:31:11.529Z,99030.00
2023-04-03T00:36:33.182Z,99034.00
2023-04-03T00:41:54.620Z,99055.00
2023-04-03T00:47:18.502Z,99040.00
2023-04-03T00:52:41.118Z,99032.00
2023-04-03T00:58:03.155Z,99053.00
2023-04-03T01:03:25.508Z,99051.00
2023-04-03T01:08:52.112Z,99042.00
2023-04-03T01:14:13.400Z,99042.00
2023-04-03T01:19:38.197Z,99055.00
2023-04-03T01:24:59.916Z,99052.00
2023-04-03T01:30:29.067Z,99059.00
2023-04-03T01:35:51.064Z,99057.00
2023-04-03T01:41:13.500Z,99063.00
2023-04-03T01:46:36.078Z,99071.00
2023-04-03T01:51:57.577Z,99059.00
2023-04-03T01:57:19.254Z,99068.00
2023-04-03T02:02:40.826Z,99067.00
2023-04-03T02:08:02.620Z,99061.00
2023-04-03T02:13:24.026Z,99066.00
2023-04-03T02:18:45.420Z,99075.00
2023-04-03T02:24:07.121Z,99073.00
2023-04-03T02:29:29.492Z,99069.00
2023-04-03T02:34:51.038Z,99077.00
2023-04-03T02:40:12.796Z,99076.00
2023-04-03T02:45:34.220Z,99091.00
2023-04-03T02:50:55.432Z,99089.00
2023-04-03T02:56:16.870Z,99088.00
2023-04-03T03:01:38.605Z,99086.00
2023-04-03T03:06:59.829Z,99093.00
2023-04-03T03:12:22.954Z,99094.00
2023-04-03T03:17:45.372Z,99093.00
2023-04-03T03:23:07.019Z,99103.00
2023-04-03T03:28:29.538Z,99109.00
2023-04-03T03:33:51.208Z,99116.00
2023-04-03T03:39:12.840Z,99121.00
2023-04-03T03:44:34.331Z,99120.00
2023-04-03T03:49:55.793Z,99123.00
2023-04-03T03:55:17.817Z,99125.00
2023-04-03T04:00:42.536Z,99117.00
2023-04-03T04:06:04.669Z,99128.00
2023-04-03T04:11:26.471Z,99138.00
2023-04-03T04:16:52.916Z,99131.00
2023-04-03T04:22:19.590Z,99127.00
2023-04-03T04:27:41.134Z,99140.00
2023-04-03T04:33:03.950Z,99145.00
2023-04-03T04:38:28.251Z,99135.00
2023-04-03T04:43:53.701Z,99155.00
2023-04-03T04:49:15.779Z,99150.00
2023-04-03T04:54:38.136Z,99158.00
2023-04-03T04:59:59.492Z,99161.00
2023-04-03T05:05:21.011Z,99175.00
2023-04-03T05:10:43.764Z,99168.00
2023-04-03T05:16:07.443Z,99176.00
2023-04-03T05:21:33.400Z,99181.00
2023-04-03T05:26:59.494Z,99184.00
2023-04-03T05:32:21.809Z,99181.00
2023-04-03T05:37:48.533Z,99194.00
2023-04-03T05:43:11.947Z,99188.00
2023-04-03T05:48:36.510Z,99185.00
2023-04-03T05:54:21.552Z,99199.00
2023-04-03T05:59:44.159Z,99203.00
2023-04-03T06:05:08.188Z,99208.00
2023-04-03T06:10:30.881Z,99217.00
2023-04-03T06:15:52.567Z,99218.00
2023-04-03T06:21:14.099Z,99225.00
2023-04-03T06:26:36.401Z,99221.00
2023-04-03T06:31:57.873Z,99225.00
2023-04-03T06:37:22.672Z,99226.00
2023-04-03T06:42:44.346Z,99235.00
2023-04-03T06:48:07.573Z,99241.00
2023-04-03T06:53:29.153Z,99250.00
2023-04-03T06:58:51.997Z,99248.00
2023-04-03T07:04:13.738Z,99264.00
2023-04-03T07:09:35.290Z,99255.00
2023-04-03T07:14:56.628Z,99265.00
2023-04-03T07:20:18.411Z,99269.00
2023-04-03T07:25:48.160Z,99277.00
2023-04-03T07:31:14.702Z,99283.00
2023-04-03T07:36:37.244Z,99270.00
2023-04-03T07:41:58.878Z,99292.00
2023-04-03T07:47:21.484Z,99286.00
2023-04-03T07:52:42.676Z,99296.00
2023-04-03T07:58:04.390Z,99304.00
2023-04-03T08:03:26.247Z,99312.00
2023-04-03T08:08:48.325Z,99305.00
2023-04-03T08:14:12.187Z,99315.00
2023-04-03T08:19:33.638Z,99313.00
2023-04-03T08:24:59.406Z,99319.00
2023-04-03T08:30:21.422Z,99318.00
2023-04-03T08:35:43.557Z,99322.00
2023-04-03T08:41:31.938Z,99326.00
2023-04-03T08:47:14.355Z,99330.00
2023-04-03T08:52:48.837Z,99327.00
2023-04-03T08:58:30.628Z,99334.00
2023-04-03T09:03:52.090Z,99337.00
2023-04-03T09:09:31.337Z,99339.00
2023-04-03T09:15:35.592Z,99346.00
2023-04-03T09:21:16.135Z,99352.00
2023-04-03T09:26:54.650Z,99350.00
2023-04-03T09:32:36.297Z,99340.00
2023-04-03T09:38:10.326Z,99350.00
2023-04-03T09:43:34.098Z,99345.00
2023-04-03T09:49:09.333Z,99351.00
2023-04-03T09:54:41.035Z,99339.00
2023-04-03T10:00:06.033Z,99333.00
2023-04-03T10:05:33.930Z,99327.00
2023-04-03T10:11:17.910Z,99327.00
2023-04-03T10:17:24.403Z,99321.00
2023-04-03T10:22:46.628Z,99329.00
2023-04-03T10:28:11.544Z,99308.00
2023-04-03T10:33:55.577Z,99310.00
2023-04-03T10:39:50.310Z,99306.00
2023-04-03T10:45:34.238Z,99304.00
2023-04-03T10:51:19.938Z,99311.00
2023-04-03T10:56:53.296Z,99309.00
2023-04-03T11:02:54.020Z,99309.00
2023-04-03T11:08:52.540Z,99307.00
2023-04-03T11:14:35.977Z,99295.00
2023-04-03T11:20:18.542Z,99286.00
2023-04-03T11:25:44.354Z,99285.00
2023-04-03T11:31:31.790Z,99287.00
2023-04-03T11:37:07.447Z,99278.00
2023-04-03T11:42:51.032Z,99273.00
2023-04-03T11:48:32.653Z,99263.00
2023-04-03T11:53:54.719Z,99261.00
2023-04-03T11:59:19.422Z,99263.00
2023-04-03T12:05:02.764Z,99248.00
2023-04-03T12:10:32.387Z,99249.00
2023-04-03T12:15:55.004Z,99258.00
2023-04-03T12:21:20.957Z,99252.00
2023-04-03T12:27:00.585Z,99240.00
2023-04-03T12:33:05.844Z,99247.00
2023-04-03T12:38:46.722Z,99246.00
2023-04-03T12:44:45.918Z,99240.00
2023-04-03T12:50:25.092Z,99251.00
2023-04-03T12:55:46.601Z,99230.00
2023-04-03T13:01:24.476Z,99229.00
2023-04-03T13:06:46.334Z,99233.00
2023-04-03T13:12:14.993Z,99236.00
2023-04-03T13:17:42.226Z,99235.00
2023-04-03T13:23:10.340Z,99230.00
2023-04-03T13:28:32.977Z,99240.00
2023-04-03T13:34:12.366Z,99227.00
2023-04-03T13:39:36.234Z,99229.00
2023-04-03T13:45:29.409Z,99230.00
2023-04-03T13:50:57.005Z,99221.00
2023-04-03T13:56:30.526Z,99225.00
2023-04-03T14:02:03.289Z,99211.00
2023-04-03T14:07:25.775Z,99226.00
2023-04-03T14:12:47.335Z,99214.00
2023-04-03T14:18:11.594Z,99221.00
2023-04-03T14:23:34.096Z,99216.00
2023-04-03T14:28:56.867Z,99220.00
2023-04-03T14:34:18.625Z,99213.00
2023-04-03T14:39:40.050Z,99215.00
2023-04-03T14:45:06.273Z,99217.00
2023-04-03T14:50:28.813Z,99206.00
2023-04-03T14:55:51.164Z,99206.00
2023-04-03T15:01:15.288Z,99205.00
2023-04-03T15:06:36.613Z,99204.00
2023-04-03T15:11:57.887Z,99204.00
2023-04-03T15:17:23.386Z,99206.00
2023-04-03T15:22:45.073Z,99205.00
2023-04-03T15:28:06.978Z,99209.00
2023-04-03T15:33:28.973Z,99208.00
2023-04-03T15:38:50.213Z,99199.00
2023-04-03T15:44:13.266Z,99201.00
2023-04-03T15:49:35.475Z,99217.00
2023-04-03T15:54:56.631Z,99205.00
2023-04-03T16:00:18.637Z,99210.00
2023-04-03T16:05:40.838Z,99209.00
2023-04-03T16:11:02.328Z,99213.00
2023-04-03T16:16:25.812Z,99206.00
2023-04-03T16:21:47.743Z,99212.00
2023-04-03T16:27:09.009Z,99216.00
2023-04-03T16:32:32.992Z,99204.00
2023-04-03T16:37:54.207Z,99214.00
2023-04-03T16:43:16.031Z,99208.00
2023-04-03T16:48:37.397Z,99213.00
2023-04-03T16:53:59.193Z,99216.00
2023-04-03T16:59:20.824Z,99210.00
2023-04-03T17:04:42.305Z,99213.00
2023-04-03T17:10:04.284Z,99211.00
2023-04-03T17:15:26.076Z,99209.00
2023-04-03T17:20:47.636Z,99212.00
2023-04-03T17:26:09.354Z,99220.00
2023-04-03T17:31:30.998Z,99219.00
2023-04-03T17:36:52.262Z,99215.00
2023-04-03T17:42:13.651Z,99237.00
2023-04-03T17:47:35.520Z,99227.00
2023-04-03T17:52:57.087Z,99240.00
2023-04-03T17:58:18.585Z,99237.00
2023-04-03T18:03:40.440Z,99242.00
2023-04-03T18:09:15.419Z,99244.00
2023-04-03T18:14:39.062Z,99256.00
2023-04-03T18:20:00.760Z,99243.00
2023-04-03T18:25:22.459Z,99253.00
2023-04-03T18:30:44.291Z,99247.00
2023-04-03T18:36:06.134Z,99249.00
2023-04-03T18:41:31.229Z,99253.00
2023-04-03T18:46:54.065Z,99250.00
2023-04-03T18:52:15.823Z,99255.00
2023-04-03T18:57:37.586Z,99247.00
2023-04-03T19:02:59.493Z,99247.00
2023-04-03T19:08:21.352Z,99246.00
2023-04-03T19:13:46.715Z,99237.00
2023-04-03T19:19:24.284Z,99243.00
2023-04-03T19:24:45.913Z,99247.00
2023-04-03T19:30:09.700Z,99243.00
2023-04-03T19:35:31.336Z,99249.00
2023-04-03T19:40:52.852Z,99251.00
2023-04-03T19:46:14.626Z,99251.00
2023-04-03T19:51:35.985Z,99242.00
2023-04-03T19:56:58.313Z,99254.00
2023-04-03T20:02:21.538Z,99244.00
2023-04-03T20:07:43.038Z,99248.00
2023-04-03T20:13:08.639Z,99246.00
2023-04-03T20:18:30.597Z,99250.00
2023-04-03T20:23:51.998Z,99243.00
2023-04-03T20:29:16.641Z,99243.00
2023-04-03T20:34:38.182Z,99243.00
2023-04-03T20:39:59.480Z,99245.00
2023-04-03T20:45:21.735Z,99234.00
2023-04-03T20:50:43.470Z,99237.00
2023-04-03T20:56:05.308Z,99233.00
2023-04-03T21:01:27.274Z,99233.00
2023-04-03T21:07:27.495Z,99227.00
2023-04-03T21:13:26.620Z,99221.00
2023-04-03T21:19:15.993Z,99219.00
2023-04-03T21:24:38.057Z,99226.00
2023-04-03T21:29:59.706Z,99230.00
2023-04-03T21:35:21.551Z,99210.00
2023-04-03T21:40:46.769Z,99220.00
2023-04-03T21:46:08.342Z,99212.00
2023-04-03T21:51:29.941Z,99210.00
2023-04-03T21:56:54.285Z,99214.00
2023-04-03T22:02:15.731Z,99207.00
2023-04-03T22:07:37.716Z,99201.00
2023-04-03T22:12:59.179Z,99206.00
2023-04-03T22:18:20.677Z,99200.00
2023-04-03T22:23:42.282Z,99202.00
2023-04-03T22:29:03.995Z,99201.00
2023-04-03T22:34:25.572Z,99198.00
2023-04-03T22:39:47.976Z,99193.00
2023-04-03T22:45:09.992Z,99184.00
2023-04-03T22:50:31.979Z,99176.00
2023-04-03T22:55:57.754Z,99186.00
2023-04-03T23:01:20.333Z,99164.00
2023-04-03T23:06:41.819Z,99172.00
2023-04-03T23:12:03.176Z,99172.00
2023-04-03T23:17:24.611Z,99164.00
2023-04-03T23:22:46.447Z,99173.00
2023-04-03T23:28:07.980Z,99163.00
2023-04-03T23:33:30.902Z,99164.00
2023-04-03T23:38:55.705Z,99171.00
2023-04-03T23:44:17.726Z,99173.00
2023-04-03T23:49:39.243Z,99172.00
2023-04-03T23:55:00.560Z,99166.00
